createdAt,value
2023-04-26T00:01:39.738Z,4.50
2023-04-26T00:04:06.681Z,4.29
2023-04-26T00:06:33.621Z,4.28
2023-04-26T00:09:00.307Z,4.45
2023-04-26T00:11:28.481Z,4.50
2023-04-26T00:13:55.158Z,4.57
2023-04-26T00:16:24.229Z,4.49
2023-04-26T00:18:52.770Z,4.28
2023-04-26T00:21:19.826Z,4.19
2023-04-26T00:23:46.446Z,4.22
2023-04-26T00:26:13.021Z,4.12
2023-04-26T00:28:39.640Z,4.12
2023-04-26T00:31:06.192Z,4.05
2023-04-26T00:33:32.920Z,3.98
2023-04-26T00:35:59.481Z,3.84
2023-04-26T00:38:26.101Z,3.77
2023-04-26T00:40:52.728Z,3.84
2023-04-26T00:43:19.402Z,3.84
2023-04-26T00:45:46.151Z,3.67
2023-04-26T00:48:13.277Z,3.58
2023-04-26T00:50:39.965Z,3.54
2023-04-26T00:53:08.418Z,3.64
2023-04-26T00:55:35.670Z,3.70
2023-04-26T00:58:02.426Z,3.50
2023-04-26T01:00:30.824Z,3.58
2023-04-26T01:02:57.984Z,3.43
2023-04-26T01:05:24.831Z,3.56
2023-04-26T01:07:52.412Z,3.63
2023-04-26T01:10:19.244Z,3.50
2023-04-26T01:12:45.920Z,3.58
2023-04-26T01:15:12.577Z,3.60
2023-04-26T01:17:39.810Z,3.40
2023-04-26T01:20:10.620Z,3.41
2023-04-26T01:22:37.312Z,3.30
2023-04-26T01:25:06.397Z,3.15
2023-04-26T01:27:32.964Z,3.15
2023-04-26T01:29:59.602Z,3.12
2023-04-26T01:32:26.266Z,3.02
2023-04-26T01:34:52.903Z,3.26
2023-04-26T01:37:19.824Z,3.17
2023-04-26T01:39:46.657Z,3.15
2023-04-26T01:42:13.281Z,3.13
2023-04-26T01:44:39.830Z,3.38
2023-04-26T01:47:07.611Z,3.33
2023-04-26T01:49:34.364Z,3.37
2023-04-26T01:52:01.677Z,3.17
2023-04-26T01:54:28.253Z,3.19
2023-04-26T01:56:54.877Z,3.23
2023-04-26T01:59:21.646Z,3.12
2023-04-26T02:01:48.419Z,3.02
2023-04-26T02:04:15.162Z,2.91
2023-04-26T02:06:42.492Z,3.00
2023-04-26T02:09:12.333Z,2.75
2023-04-26T02:11:38.990Z,2.64
2023-04-26T02:14:05.758Z,2.77
2023-04-26T02:16:32.871Z,2.68
2023-04-26T02:19:00.200Z,2.69
2023-04-26T02:21:28.573Z,2.64
2023-04-26T02:23:55.162Z,2.55
2023-04-26T02:26:21.882Z,2.51
2023-04-26T02:28:48.703Z,2.51
2023-04-26T02:31:15.359Z,2.40
2023-04-26T02:33:42.048Z,2.33
2023-04-26T02:36:09.026Z,2.13
2023-04-26T02:38:36.702Z,2.16
2023-04-26T02:41:04.458Z,2.02
2023-04-26T02:43:31.184Z,1.89
2023-04-26T02:46:00.511Z,1.86
2023-04-26T02:48:27.142Z,1.92
2023-04-26T02:50:56.344Z,1.89
2023-04-26T02:53:24.103Z,1.95
2023-04-26T02:55:51.470Z,1.99
2023-04-26T02:58:18.529Z,2.06
2023-04-26T03:00:48.474Z,1.87
2023-04-26T03:03:15.550Z,1.86
2023-04-26T03:05:42.769Z,1.80
2023-04-26T03:08:09.453Z,1.76
2023-04-26T03:10:36.061Z,1.83
2023-04-26T03:13:03.957Z,2.09
2023-04-26T03:15:30.561Z,1.93
2023-04-26T03:17:58.334Z,2.00
2023-04-26T03:20:25.888Z,1.90
2023-04-26T03:22:52.425Z,2.11
2023-04-26T03:25:21.346Z,2.05
2023-04-26T03:27:49.095Z,1.99
2023-04-26T03:30:16.246Z,2.09
2023-04-26T03:32:42.929Z,2.07
2023-04-26T03:35:10.601Z,2.02
2023-04-26T03:37:40.185Z,1.89
2023-04-26T03:40:08.984Z,2.05
2023-04-26T03:42:37.022Z,1.79
2023-04-26T03:45:04.513Z,1.93
2023-04-26T03:47:31.639Z,1.79
2023-04-26T03:49:58.649Z,1.82
2023-04-26T03:52:25.536Z,1.73
2023-04-26T03:54:52.240Z,1.70
2023-04-26T03:57:18.934Z,2.02
2023-04-26T03:59:48.027Z,1.99
2023-04-26T04:02:14.970Z,1.95
2023-04-26T04:04:42.334Z,1.85
2023-04-26T04:07:09.222Z,1.73
2023-04-26T04:09:36.224Z,1.78
2023-04-26T04:12:03.166Z,1.87
2023-04-26T04:14:29.987Z,1.80
2023-04-26T04:16:59.759Z,2.05
2023-04-26T04:19:26.974Z,1.83
2023-04-26T04:21:53.644Z,1.79
2023-04-26T04:24:20.317Z,1.68
2023-04-26T04:26:47.357Z,1.66
2023-04-26T04:29:14.078Z,1.60
2023-04-26T04:31:41.956Z,1.72
2023-04-26T04:34:09.264Z,1.89
2023-04-26T04:36:39.191Z,1.68
2023-04-26T04:39:11.323Z,1.82
2023-04-26T04:41:38.079Z,1.86
2023-04-26T04:44:06.200Z,1.78
2023-04-26T04:46:38.163Z,1.80
2023-04-26T04:49:05.029Z,1.80
2023-04-26T04:51:31.782Z,1.80
2023-04-26T04:53:58.434Z,1.78
2023-04-26T04:56:26.453Z,1.78
2023-04-26T04:58:53.970Z,1.80
2023-04-26T05:01:20.717Z,1.92
2023-04-26T05:03:47.385Z,1.85
2023-04-26T05:06:14.092Z,1.82
2023-04-26T05:08:40.937Z,1.87
2023-04-26T05:11:07.476Z,1.90
2023-04-26T05:13:43.238Z,1.97
2023-04-26T05:16:10.012Z,2.14
2023-04-26T05:18:36.996Z,2.18
2023-04-26T05:21:03.949Z,2.17
2023-04-26T05:23:31.404Z,2.17
2023-04-26T05:26:02.229Z,2.40
2023-04-26T05:28:29.251Z,2.57
2023-04-26T05:30:58.499Z,2.78
2023-04-26T05:33:25.721Z,2.71
2023-04-26T05:35:57.975Z,2.68
2023-04-26T05:38:24.893Z,2.86
2023-04-26T05:40:52.005Z,2.96
2023-04-26T05:43:19.001Z,3.02
2023-04-26T05:45:56.099Z,2.99
2023-04-26T05:48:31.115Z,3.09
2023-04-26T05:50:57.811Z,3.13
2023-04-26T05:53:24.794Z,3.43
2023-04-26T05:55:55.176Z,3.50
2023-04-26T05:58:22.938Z,3.56
2023-04-26T06:00:49.668Z,3.47
2023-04-26T06:03:23.302Z,3.51
2023-04-26T06:05:50.538Z,3.68
2023-04-26T06:08:17.376Z,3.74
2023-04-26T06:10:44.170Z,3.85
2023-04-26T06:13:10.810Z,4.03
2023-04-26T06:15:40.012Z,4.12
2023-04-26T06:18:07.262Z,4.20
2023-04-26T06:20:36.925Z,4.22
2023-04-26T06:23:04.916Z,4.19
2023-04-26T06:25:31.621Z,4.36
2023-04-26T06:28:00.212Z,4.64
2023-04-26T06:33:41.501Z,5.14
2023-04-26T06:36:12.454Z,5.47
2023-04-26T06:38:39.253Z,5.38
2023-04-26T06:41:06.080Z,5.36
2023-04-26T06:43:32.739Z,5.43
2023-04-26T06:46:03.588Z,5.50
2023-04-26T06:48:30.798Z,5.76
2023-04-26T06:50:57.496Z,6.11
2023-04-26T06:53:24.750Z,6.05
2023-04-26T06:55:53.395Z,6.34
2023-04-26T06:58:20.061Z,6.48
2023-04-26T07:00:46.836Z,6.68
2023-04-26T07:03:13.640Z,6.80
2023-04-26T07:05:41.334Z,6.84
2023-04-26T07:08:08.328Z,7.01
2023-04-26T07:10:35.097Z,7.34
2023-04-26T07:13:01.962Z,7.45
2023-04-26T07:15:30.372Z,7.64
2023-04-26T07:17:57.068Z,7.73
2023-04-26T07:23:04.705Z,7.47
2023-04-26T07:25:31.279Z,7.24
2023-04-26T07:27:57.941Z,8.03
2023-04-26T07:30:24.535Z,8.00
2023-04-26T07:32:51.406Z,7.94
2023-04-26T07:35:18.487Z,8.14
2023-04-26T07:37:45.406Z,8.22
2023-04-26T07:40:13.730Z,8.54
2023-04-26T07:42:40.930Z,8.55
2023-04-26T07:45:08.919Z,8.07
2023-04-26T07:47:35.623Z,8.51
2023-04-26T07:50:02.479Z,8.37
2023-04-26T07:52:29.465Z,8.38
2023-04-26T07:54:56.218Z,8.48
2023-04-26T07:57:27.199Z,8.48
2023-04-26T07:59:53.907Z,9.55
2023-04-26T08:02:27.125Z,9.13
2023-04-26T08:05:01.560Z,9.22
2023-04-26T08:07:28.406Z,9.19
2023-04-26T08:09:55.202Z,8.93
2023-04-26T08:12:22.056Z,9.06
2023-04-26T08:14:48.904Z,9.08
2023-04-26T08:17:15.728Z,9.40
2023-04-26T08:19:44.923Z,9.41
2023-04-26T08:22:11.760Z,9.63
2023-04-26T08:24:38.481Z,9.02
2023-04-26T08:27:06.153Z,9.12
2023-04-26T08:29:32.835Z,8.96
2023-04-26T08:32:00.253Z,9.27
2023-04-26T08:34:28.474Z,9.15
2023-04-26T08:36:55.668Z,9.18
2023-04-26T08:39:22.321Z,8.92
2023-04-26T08:41:55.251Z,9.26
2023-04-26T08:44:24.575Z,9.03
2023-04-26T08:47:24.681Z,9.34
2023-04-26T08:49:59.581Z,9.44
2023-04-26T08:52:31.113Z,9.33
2023-04-26T08:54:59.013Z,9.32
2023-04-26T08:57:25.681Z,9.30
2023-04-26T08:59:56.323Z,9.32
2023-04-26T09:02:24.265Z,9.34
2023-04-26T09:04:51.535Z,9.27
2023-04-26T09:07:32.207Z,9.22
2023-04-26T09:09:59.596Z,9.48
2023-04-26T09:12:26.458Z,9.26
2023-04-26T09:14:54.167Z,9.26
2023-04-26T09:17:41.983Z,9.26
2023-04-26T09:20:23.897Z,9.36
2023-04-26T09:22:52.592Z,9.53
2023-04-26T09:25:26.530Z,9.58
2023-04-26T09:27:53.336Z,9.95
2023-04-26T09:30:21.124Z,10.01
2023-04-26T09:32:56.723Z,10.26
2023-04-26T09:35:35.580Z,10.12
2023-04-26T09:38:12.135Z,10.70
2023-04-26T09:40:43.553Z,11.29
2023-04-26T09:43:14.420Z,11.76
2023-04-26T09:45:55.904Z,11.65
2023-04-26T09:48:29.556Z,10.69
2023-04-26T09:51:00.436Z,10.32
2023-04-26T09:53:42.536Z,10.21
2023-04-26T09:56:22.068Z,10.64
2023-04-26T09:58:58.884Z,10.91
2023-04-26T10:01:30.403Z,11.42
2023-04-26T10:03:58.356Z,10.71
2023-04-26T10:06:25.534Z,10.70
2023-04-26T10:08:52.459Z,10.79
2023-04-26T10:11:22.761Z,10.61
2023-04-26T10:13:51.527Z,10.76
2023-04-26T10:16:21.126Z,10.81
2023-04-26T10:18:50.852Z,10.67
2023-04-26T10:21:24.369Z,10.45
2023-04-26T10:23:51.227Z,10.30
2023-04-26T10:26:50.146Z,10.22
2023-04-26T10:29:16.822Z,9.98
2023-04-26T10:32:03.633Z,10.21
2023-04-26T10:34:32.613Z,10.88
2023-04-26T10:37:16.367Z,11.24
2023-04-26T10:39:46.987Z,10.63
2023-04-26T10:42:30.481Z,10.83
2023-04-26T10:45:00.654Z,11.82
2023-04-26T10:47:35.089Z,12.16
2023-04-26T10:50:11.592Z,12.13
2023-04-26T10:53:07.989Z,11.93
2023-04-26T10:55:43.567Z,12.48
2023-04-26T10:58:41.762Z,12.28
2023-04-26T11:01:12.039Z,12.80
2023-04-26T11:03:41.091Z,13.06
2023-04-26T11:06:09.955Z,13.15
2023-04-26T11:08:40.017Z,12.89
2023-04-26T11:11:14.330Z,12.34
2023-04-26T11:13:42.918Z,12.80
2023-04-26T11:16:14.276Z,13.99
2023-04-26T11:18:47.106Z,14.19
2023-04-26T11:21:19.009Z,13.69
2023-04-26T11:23:55.280Z,13.22
2023-04-26T11:26:22.205Z,12.85
2023-04-26T11:28:49.985Z,12.62
2023-04-26T11:31:18.768Z,12.82
2023-04-26T11:33:47.687Z,12.59
2023-04-26T11:36:15.812Z,12.52
2023-04-26T11:38:43.888Z,12.57
2023-04-26T11:41:11.514Z,12.52
2023-04-26T11:43:39.438Z,12.22
2023-04-26T11:46:10.457Z,12.27
2023-04-26T11:48:39.751Z,12.39
2023-04-26T11:51:08.498Z,13.02
2023-04-26T11:53:40.630Z,12.79
2023-04-26T11:56:18.026Z,12.64
2023-04-26T11:58:48.009Z,12.57
2023-04-26T12:01:25.288Z,12.92
2023-04-26T12:03:56.944Z,12.97
2023-04-26T12:06:33.083Z,13.06
2023-04-26T12:09:03.051Z,12.83
2023-04-26T12:11:30.599Z,12.51
2023-04-26T12:13:59.645Z,12.29
2023-04-26T12:16:27.237Z,12.17
2023-04-26T12:18:55.053Z,12.72
2023-04-26T12:21:22.387Z,12.03
2023-04-26T12:23:50.009Z,11.87
2023-04-26T12:26:17.288Z,12.28
2023-04-26T12:28:45.422Z,12.66
2023-04-26T12:31:12.159Z,13.43
2023-04-26T12:33:38.933Z,13.51
2023-04-26T12:36:13.210Z,14.37
2023-04-26T12:38:40.758Z,13.75
2023-04-26T12:41:07.498Z,13.96
2023-04-26T12:43:34.350Z,13.98
2023-04-26T12:46:01.709Z,13.50
2023-04-26T12:48:29.079Z,12.95
2023-04-26T12:50:58.313Z,13.09
2023-04-26T12:53:27.880Z,13.46
2023-04-26T12:55:54.759Z,12.72
2023-04-26T12:58:22.661Z,12.86
2023-04-26T13:00:51.351Z,13.82
2023-04-26T13:03:18.342Z,14.12
2023-04-26T13:05:45.618Z,14.27
2023-04-26T13:08:12.562Z,14.33
2023-04-26T13:10:40.661Z,14.43
2023-04-26T13:13:07.409Z,14.71
2023-04-26T13:15:34.364Z,14.81
2023-04-26T13:18:01.464Z,14.34
2023-04-26T13:20:29.689Z,15.39
2023-04-26T13:22:59.348Z,15.38
2023-04-26T13:25:28.380Z,15.36
2023-04-26T13:27:56.396Z,15.84
2023-04-26T13:30:23.154Z,15.71
2023-04-26T13:32:50.006Z,15.94
2023-04-26T13:35:16.711Z,15.45
2023-04-26T13:37:43.515Z,15.26
2023-04-26T13:40:11.484Z,15.26
2023-04-26T13:42:39.024Z,16.04
2023-04-26T13:45:14.100Z,15.45
2023-04-26T13:47:40.924Z,15.02
2023-04-26T13:50:07.921Z,15.56
2023-04-26T13:52:34.745Z,16.29
2023-04-26T13:55:01.361Z,14.96
2023-04-26T13:57:28.435Z,15.93
2023-04-26T13:59:55.045Z,16.14
2023-04-26T14:02:22.388Z,15.43
2023-04-26T14:04:49.471Z,15.76
2023-04-26T14:07:17.222Z,15.24
2023-04-26T14:09:43.816Z,14.89
2023-04-26T14:12:10.610Z,14.73
2023-04-26T14:14:37.279Z,14.33
2023-04-26T14:17:03.988Z,14.10
2023-04-26T14:19:30.724Z,13.96
2023-04-26T14:21:57.416Z,14.34
2023-04-26T14:24:24.310Z,14.22
2023-04-26T14:26:50.928Z,14.17
2023-04-26T14:29:19.363Z,15.14
2023-04-26T14:31:51.182Z,15.09
2023-04-26T14:34:17.900Z,15.29
2023-04-26T14:36:48.753Z,14.63
2023-04-26T14:39:16.465Z,14.94
2023-04-26T14:41:43.549Z,15.71
2023-04-26T14:44:10.701Z,15.86
2023-04-26T14:46:37.738Z,15.04
2023-04-26T14:49:04.602Z,16.48
2023-04-26T14:51:32.600Z,16.03
2023-04-26T14:54:00.480Z,16.79
2023-04-26T14:56:27.099Z,16.41
2023-04-26T14:58:53.861Z,15.63
2023-04-26T15:01:20.839Z,16.41
2023-04-26T15:03:48.752Z,16.13
2023-04-26T15:06:20.579Z,15.57
2023-04-26T15:08:48.659Z,15.59
2023-04-26T15:11:15.449Z,14.92
2023-04-26T15:13:42.135Z,15.15
2023-04-26T15:16:08.805Z,15.06
2023-04-26T15:18:35.466Z,14.02
2023-04-26T15:21:02.077Z,14.75
2023-04-26T15:23:28.736Z,15.69
2023-04-26T15:25:57.153Z,16.26
2023-04-26T15:28:23.727Z,15.35
2023-04-26T15:30:50.672Z,15.63
2023-04-26T15:33:17.698Z,16.26
2023-04-26T15:35:44.622Z,16.00
2023-04-26T15:38:11.319Z,16.10
2023-04-26T15:40:38.385Z,16.03
2023-04-26T15:43:05.004Z,16.59
2023-04-26T15:45:31.543Z,16.76
2023-04-26T15:47:58.114Z,16.11
2023-04-26T15:50:25.188Z,15.94
2023-04-26T15:52:51.795Z,16.43
2023-04-26T15:55:18.711Z,16.24
2023-04-26T15:57:46.358Z,15.98
2023-04-26T16:00:14.360Z,15.14
2023-04-26T16:02:45.239Z,16.29
2023-04-26T16:05:12.447Z,15.83
2023-04-26T16:07:39.227Z,15.36
2023-04-26T16:10:10.021Z,15.70
2023-04-26T16:12:39.619Z,16.26
2023-04-26T16:15:08.576Z,15.81
2023-04-26T16:17:35.727Z,15.90
2023-04-26T16:20:05.952Z,16.18
2023-04-26T16:22:33.550Z,16.58
2023-04-26T16:25:00.229Z,16.21
2023-04-26T16:27:27.482Z,15.60
2023-04-26T16:29:54.579Z,15.31
2023-04-26T16:32:22.359Z,15.33
2023-04-26T16:34:49.085Z,15.14
2023-04-26T16:37:15.818Z,14.25
2023-04-26T16:39:42.405Z,14.40
2023-04-26T16:42:08.963Z,14.02
2023-04-26T16:44:35.912Z,13.55
2023-04-26T16:47:02.562Z,13.62
2023-04-26T16:49:29.100Z,13.78
2023-04-26T16:51:58.989Z,14.29
2023-04-26T16:54:26.818Z,14.05
2023-04-26T16:56:53.514Z,14.27
2023-04-26T16:59:20.372Z,14.20
2023-04-26T17:01:47.485Z,14.36
2023-04-26T17:04:14.725Z,14.25
2023-04-26T17:06:41.491Z,14.12
2023-04-26T17:09:08.884Z,13.54
2023-04-26T17:11:37.462Z,13.19
2023-04-26T17:14:04.686Z,12.76
2023-04-26T17:16:31.426Z,12.39
2023-04-26T17:18:58.580Z,12.34
2023-04-26T17:21:25.555Z,12.16
2023-04-26T17:23:52.598Z,12.25
2023-04-26T17:26:19.272Z,12.10
2023-04-26T17:28:45.923Z,12.31
2023-04-26T17:31:12.551Z,12.28
2023-04-26T17:33:39.216Z,12.00
2023-04-26T17:36:06.481Z,12.01
2023-04-26T17:38:33.206Z,11.90
2023-04-26T17:41:02.418Z,11.83
2023-04-26T17:43:29.019Z,11.71
2023-04-26T17:45:56.035Z,11.71
2023-04-26T17:48:22.647Z,11.90
2023-04-26T17:50:49.295Z,11.52
2023-04-26T17:53:18.966Z,11.42
2023-04-26T17:58:40.773Z,11.14
2023-04-26T18:01:07.483Z,11.21
2023-04-26T18:03:39.590Z,11.17
2023-04-26T18:06:06.597Z,11.04
2023-04-26T18:08:33.247Z,11.02
2023-04-26T18:13:41.783Z,11.00
2023-04-26T18:18:49.005Z,10.90
2023-04-26T18:21:15.703Z,10.74
2023-04-26T18:23:42.420Z,10.79
2023-04-26T18:26:09.797Z,10.83
2023-04-26T18:28:36.462Z,10.94
2023-04-26T18:31:03.218Z,10.83
2023-04-26T18:33:29.882Z,10.85
2023-04-26T18:35:56.510Z,10.66
2023-04-26T18:38:23.154Z,10.77
2023-04-26T18:40:50.145Z,10.71
2023-04-26T18:43:16.820Z,10.74
2023-04-26T18:45:43.849Z,10.61
2023-04-26T18:48:11.987Z,10.61
2023-04-26T18:50:38.595Z,10.67
2023-04-26T18:53:05.224Z,10.63
2023-04-26T18:55:32.029Z,10.60
2023-04-26T18:57:58.616Z,10.52
2023-04-26T19:00:25.337Z,10.60
2023-04-26T19:02:52.105Z,10.66
2023-04-26T19:05:19.021Z,10.59
2023-04-26T19:07:45.981Z,10.59
2023-04-26T19:10:15.003Z,10.45
2023-04-26T19:12:41.562Z,10.43
2023-04-26T19:15:08.522Z,10.40
2023-04-26T19:17:35.595Z,10.38
2023-04-26T19:20:02.224Z,10.36
2023-04-26T19:22:30.052Z,10.53
2023-04-26T19:24:56.667Z,10.42
2023-04-26T19:27:23.277Z,10.39
2023-04-26T19:29:49.863Z,10.36
2023-04-26T19:32:19.048Z,10.39
2023-04-26T19:34:47.211Z,10.33
2023-04-26T19:37:14.298Z,10.15
2023-04-26T19:39:41.069Z,10.33
2023-04-26T19:42:07.678Z,10.11
2023-04-26T19:44:34.277Z,10.16
2023-04-26T19:47:02.449Z,10.13
2023-04-26T19:49:29.269Z,10.06
2023-04-26T19:51:56.034Z,10.03
2023-04-26T19:54:22.832Z,10.12
2023-04-26T19:56:51.253Z,10.01
2023-04-26T19:59:17.896Z,9.81
2023-04-26T20:01:44.510Z,9.97
2023-04-26T20:04:11.394Z,9.85
2023-04-26T20:06:39.586Z,9.87
2023-04-26T20:09:11.004Z,9.84
2023-04-26T20:11:37.803Z,9.78
2023-04-26T20:14:04.399Z,9.60
2023-04-26T20:16:31.055Z,9.73
2023-04-26T20:18:57.774Z,9.80
2023-04-26T20:21:27.159Z,9.80
2023-04-26T20:23:55.142Z,9.90
2023-04-26T20:26:21.872Z,9.77
2023-04-26T20:28:48.753Z,9.71
2023-04-26T20:31:15.467Z,9.67
2023-04-26T20:33:42.658Z,9.82
2023-04-26T20:36:09.964Z,9.74
2023-04-26T20:38:36.666Z,9.69
2023-04-26T20:41:03.726Z,9.61
2023-04-26T20:43:30.508Z,9.78
2023-04-26T20:45:57.681Z,9.54
2023-04-26T20:48:24.329Z,9.33
2023-04-26T20:50:53.971Z,9.36
2023-04-26T20:53:21.453Z,9.55
2023-04-26T20:55:48.071Z,9.36
2023-04-26T20:58:14.768Z,9.32
2023-04-26T21:00:42.430Z,9.54
2023-04-26T21:03:09.463Z,9.55
2023-04-26T21:05:36.542Z,9.54
2023-04-26T21:08:03.910Z,9.54
2023-04-26T21:10:30.950Z,9.46
2023-04-26T21:12:57.519Z,9.50
2023-04-26T21:15:24.182Z,9.50
2023-04-26T21:17:52.117Z,9.44
2023-04-26T21:20:18.736Z,9.26
2023-04-26T21:22:45.324Z,9.44
2023-04-26T21:25:16.975Z,9.46
2023-04-26T21:27:43.575Z,9.20
2023-04-26T21:30:11.412Z,9.11
2023-04-26T21:32:40.413Z,9.05
2023-04-26T21:35:08.171Z,9.13
2023-04-26T21:37:34.912Z,9.16
2023-04-26T21:40:01.641Z,9.19
2023-04-26T21:42:28.251Z,9.02
2023-04-26T21:44:54.877Z,9.16
2023-04-26T21:47:21.839Z,8.95
2023-04-26T21:49:48.549Z,8.79
2023-04-26T21:52:15.085Z,8.89
2023-04-26T21:54:41.748Z,8.79
2023-04-26T21:57:09.479Z,8.98
2023-04-26T21:59:36.595Z,8.91
2023-04-26T22:02:03.657Z,9.06
2023-04-26T22:04:30.437Z,9.13
2023-04-26T22:06:57.389Z,9.26
2023-04-26T22:09:24.026Z,9.18
2023-04-26T22:11:50.652Z,9.09
2023-04-26T22:14:17.361Z,9.26
2023-04-26T22:16:43.949Z,9.20
2023-04-26T22:19:11.041Z,9.15
2023-04-26T22:21:37.927Z,9.12
2023-04-26T22:24:04.661Z,9.06
2023-04-26T22:26:31.554Z,9.16
2023-04-26T22:28:58.113Z,9.08
2023-04-26T22:31:25.398Z,9.12
2023-04-26T22:33:51.933Z,9.03
2023-04-26T22:36:18.499Z,9.02
2023-04-26T22:38:45.034Z,9.13
2023-04-26T22:41:11.620Z,9.05
2023-04-26T22:43:39.235Z,8.88
2023-04-26T22:46:05.805Z,8.76
2023-04-26T22:48:32.376Z,8.78
2023-04-26T22:51:00.193Z,8.79
2023-04-26T22:53:26.852Z,8.79
2023-04-26T22:55:53.401Z,8.85
2023-04-26T22:58:20.012Z,9.03
2023-04-26T23:00:47.085Z,9.09
2023-04-26T23:03:13.838Z,9.01
2023-04-26T23:05:40.478Z,8.88
2023-04-26T23:08:07.127Z,8.99
2023-04-26T23:10:33.698Z,8.86
2023-04-26T23:13:00.449Z,8.85
2023-04-26T23:15:27.460Z,8.65
2023-04-26T23:17:54.133Z,8.53
2023-04-26T23:20:20.778Z,8.37
2023-04-26T23:22:47.370Z,8.38
2023-04-26T23:25:13.949Z,8.40
2023-04-26T23:27:40.990Z,8.29
2023-04-26T23:30:08.288Z,8.34
2023-04-26T23:32:34.899Z,8.34
2023-04-26T23:35:01.557Z,8.34
2023-04-26T23:37:28.184Z,8.34
2023-04-26T23:39:55.843Z,8.26
2023-04-26T23:42:22.414Z,8.22
2023-04-26T23:44:49.104Z,8.27
2023-04-26T23:47:15.712Z,8.07
2023-04-26T23:49:42.411Z,8.07
2023-04-26T23:52:08.949Z,8.04
2023-04-26T23:54:35.509Z,8.12
